Time;durP1;ratioP1;P1;durP2;ratioP2;P2;SDS_P1;SDS_P2;PMS_P1;PMS_P2;Temp;Humidity;BMP_temperature;BMP_pressure;BME280_temperature;BME280_humidity;BME280_pressure;Samples;Min_cycle;Max_cycle;Signal;HPM_P1;HPM_P2
2024/02/11 00:00:48;;;;;;;16.00;11.20;;;;;;;5.61;100.00;93061.69;2090809;28;20049;-58
2024/02/11 00:01:49;;;;;;;18.88;11.52;;;;;;;5.63;100.00;93068.38;2090785;28;20063;-58
2024/02/11 00:02:53;;;;;;;17.65;11.50;;;;;;;5.68;100.00;93065.47;2090431;28;20049;-62
2024/02/11 00:03:54;;;;;;;19.00;10.60;;;;;;;5.69;100.00;93060.22;2090568;28;20037;-58
2024/02/11 00:04:55;;;;;;;17.63;11.32;;;;;;;5.72;100.00;93065.13;2090418;28;20476;-58
2024/02/11 00:05:57;;;;;;;21.20;11.75;;;;;;;5.77;100.00;93066.53;2090561;28;20033;-58
2024/02/11 00:06:59;;;;;;;17.27;10.93;;;;;;;5.79;100.00;93065.47;2090203;28;20067;-58
2024/02/11 00:08:00;;;;;;;18.13;12.27;;;;;;;5.79;100.00;93070.63;2090632;28;20052;-58
2024/02/11 00:09:02;;;;;;;16.10;11.85;;;;;;;5.80;100.00;93068.84;2090814;28;20396;-58
2024/02/11 00:10:08;;;;;;;19.40;12.10;;;;;;;5.81;100.00;93075.66;2090276;28;20049;-58
2024/02/11 00:11:12;;;;;;;17.60;13.02;;;;;;;5.81;100.00;93079.06;2090275;28;20048;-58
2024/02/11 00:12:13;;;;;;;22.88;12.95;;;;;;;5.83;100.00;93074.63;2090432;28;20051;-58
2024/02/11 00:13:14;;;;;;;29.88;14.25;;;;;;;5.83;100.00;93074.63;2090606;28;20401;-58
2024/02/11 00:14:15;;;;;;;24.52;14.80;;;;;;;5.84;100.00;93071.09;2090421;28;20048;-58
2024/02/11 00:15:16;;;;;;;21.75;13.57;;;;;;;5.87;100.00;93075.19;2097595;28;20044;-57
2024/02/11 00:16:17;;;;;;;21.02;13.30;;;;;;;5.85;100.00;93067.56;2098138;28;20040;-58
2024/02/11 00:17:19;;;;;;;20.58;12.88;;;;;;;5.91;100.00;93066.31;2090600;28;20033;-61
2024/02/11 00:18:23;;;;;;;19.88;13.85;;;;;;;5.95;100.00;93075.47;2090477;28;20044;-58
2024/02/11 00:19:24;;;;;;;20.10;13.27;;;;;;;5.97;100.00;93074.41;2090315;28;20485;-58
2024/02/11 00:20:27;;;;;;;20.27;13.65;;;;;;;6.01;100.00;93071.59;2090422;28;20040;-58
2024/02/11 00:21:28;;;;;;;19.42;12.88;;;;;;;6.03;100.00;93069.75;2090442;28;20053;-58
2024/02/11 00:22:29;;;;;;;19.95;12.90;;;;;;;6.07;100.00;93071.16;2090147;28;20061;-58
2024/02/11 00:23:30;;;;;;;24.08;13.98;;;;;;;6.12;100.00;93076.75;2090660;28;20040;-59
2024/02/11 00:24:31;;;;;;;18.98;13.43;;;;;;;6.14;100.00;93073.13;2089887;28;20033;-58
2024/02/11 00:25:32;;;;;;;19.00;12.77;;;;;;;6.18;100.00;93071.97;2090162;28;20071;-61
2024/02/11 00:26:33;;;;;;;23.15;14.25;;;;;;;6.21;100.00;93077.84;2090691;28;20049;-59
2024/02/11 00:27:37;;;;;;;19.45;12.10;;;;;;;6.23;100.00;93070.78;2090058;28;20041;-58
2024/02/11 00:28:39;;;;;;;18.98;12.70;;;;;;;6.25;100.00;93079.22;2089402;28;20524;-58
2024/02/11 00:29:40;;;;;;;19.75;12.80;;;;;;;6.26;100.00;93075.72;2090661;28;20045;-58
2024/02/11 00:30:41;;;;;;;21.02;13.55;;;;;;;6.26;100.00;93075.72;2090308;28;20044;-58
2024/02/11 00:31:43;;;;;;;21.80;15.18;;;;;;;6.26;100.00;93076.53;2090017;28;20472;-58
2024/02/11 00:32:46;;;;;;;20.88;13.65;;;;;;;6.27;100.00;93080.75;2088971;28;20049;-58
2024/02/11 00:33:47;;;;;;;16.90;11.82;;;;;;;6.28;100.00;93078.97;2090327;28;20412;-58
2024/02/11 00:34:48;;;;;;;19.20;12.82;;;;;;;6.31;100.00;93078.78;2089793;28;20053;-58
2024/02/11 00:35:49;;;;;;;18.00;12.75;;;;;;;6.31;100.00;93082.16;2089762;28;20524;-58
2024/02/11 00:36:50;;;;;;;18.80;13.18;;;;;;;6.30;100.00;93088.25;2090614;28;20032;-59
2024/02/11 00:37:51;;;;;;;17.08;12.23;;;;;;;6.31;100.00;93084.75;2090457;28;20048;-58
2024/02/11 00:38:53;;;;;;;18.67;12.95;;;;;;;6.33;100.00;93088.00;2090298;28;20052;-58
2024/02/11 00:39:57;;;;;;;17.20;11.60;;;;;;;6.33;100.00;93087.19;2090251;28;20040;-58
2024/02/11 00:40:58;;;;;;;17.85;12.13;;;;;;;6.30;100.00;93087.41;2090048;28;20045;-58
2024/02/11 00:41:59;;;;;;;19.60;13.30;;;;;;;6.32;100.00;93094.09;2089950;28;20499;-58
2024/02/11 00:43:01;;;;;;;21.05;12.85;;;;;;;6.31;100.00;93092.47;2090245;28;20041;-58
2024/02/11 00:44:02;;;;;;;19.33;13.32;;;;;;;6.35;100.00;93098.19;2090256;28;20059;-58
2024/02/11 00:45:06;;;;;;;18.17;12.82;;;;;;;6.36;100.00;93092.09;2090250;28;20033;-58
2024/02/11 00:46:08;;;;;;;16.73;12.45;;;;;;;6.36;100.00;93090.38;2089884;28;20397;-58
2024/02/11 00:47:09;;;;;;;21.52;13.90;;;;;;;6.38;100.00;93087.66;2090300;28;20045;-58
2024/02/11 00:48:11;;;;;;;19.85;13.05;;;;;;;6.38;100.00;93100.53;2090157;28;20052;-60
2024/02/11 00:49:12;;;;;;;23.55;12.10;;;;;;;6.37;100.00;93092.00;2090168;28;20049;-59
2024/02/11 00:50:14;;;;;;;18.10;12.38;;;;;;;6.39;100.00;93092.69;2090042;28;20057;-58
2024/02/11 00:51:19;;;;;;;20.33;12.38;;;;;;;6.43;100.00;93097.63;2090209;28;20053;-58
2024/02/11 00:52:20;;;;;;;18.50;12.95;;;;;;;6.44;100.00;93088.94;2090056;28;20064;-59
2024/02/11 00:53:21;;;;;;;17.33;12.65;;;;;;;6.48;100.00;93095.50;2090348;28;20511;-58
2024/02/11 00:54:22;;;;;;;18.33;12.77;;;;;;;6.43;100.00;93093.28;2090254;28;20041;-58
2024/02/11 00:55:23;;;;;;;19.40;13.05;;;;;;;6.45;100.00;93088.81;2090212;28;20044;-58
2024/02/11 00:56:24;;;;;;;17.80;12.98;;;;;;;6.47;100.00;93089.53;2090106;28;20513;-58
2024/02/11 00:57:26;;;;;;;19.63;11.68;;;;;;;6.47;100.00;93083.53;2090281;28;20048;-58
2024/02/11 00:58:27;;;;;;;18.15;12.25;;;;;;;6.49;100.00;93082.47;2090190;28;20052;-58
2024/02/11 00:59:28;;;;;;;17.98;12.73;;;;;;;6.52;100.00;93086.56;2090496;28;20049;-59
2024/02/11 01:00:30;;;;;;;15.60;11.35;;;;;;;6.49;100.00;93092.78;2090250;28;20408;-59
2024/02/11 01:01:31;;;;;;;20.25;12.50;;;;;;;6.53;100.00;93096.78;2090497;28;20049;-59
2024/02/11 01:02:32;;;;;;;17.85;12.32;;;;;;;6.54;100.00;93090.69;2090095;28;20511;-58
2024/02/11 01:03:34;;;;;;;16.77;11.73;;;;;;;6.53;100.00;93103.72;2089978;28;20489;-58
2024/02/11 01:04:38;;;;;;;18.83;12.43;;;;;;;6.50;100.00;93104.75;2090163;28;20049;-61
2024/02/11 01:05:43;;;;;;;19.52;12.27;;;;;;;6.50;100.00;93104.75;2090182;28;20106;-58
2024/02/11 01:06:44;;;;;;;16.65;10.82;;;;;;;6.48;100.00;93109.22;2090234;28;20056;-58
2024/02/11 01:07:45;;;;;;;16.60;10.77;;;;;;;6.48;100.00;93123.88;2090273;28;20040;-58
2024/02/11 01:08:47;;;;;;;17.70;11.80;;;;;;;6.45;100.00;93121.53;2090140;28;20040;-58
2024/02/11 01:09:48;;;;;;;18.55;11.45;;;;;;;6.45;100.00;93124.09;2090177;28;20409;-58
2024/02/11 01:10:49;;;;;;;19.73;11.73;;;;;;;6.37;100.00;93127.25;2089918;28;20040;-58
2024/02/11 01:11:51;;;;;;;16.90;10.90;;;;;;;6.30;100.00;93126.91;2090283;28;20045;-58
2024/02/11 01:12:52;;;;;;;15.45;10.57;;;;;;;6.33;100.00;93125.84;2090493;28;20052;-59
2024/02/11 01:13:53;;;;;;;16.48;11.25;;;;;;;6.31;100.00;93136.28;2090069;28;20392;-58
2024/02/11 01:14:55;;;;;;;23.42;12.80;;;;;;;6.33;100.00;93136.97;2090171;28;20037;-58
2024/02/11 01:15:56;;;;;;;17.60;11.40;;;;;;;6.30;100.00;93138.97;2089709;28;20045;-58
2024/02/11 01:16:57;;;;;;;16.98;11.60;;;;;;;6.28;100.00;93139.09;2090189;28;20055;-58
2024/02/11 01:17:59;;;;;;;18.63;11.70;;;;;;;6.30;100.00;93151.84;2090143;28;20049;-58
2024/02/11 01:19:00;;;;;;;17.13;10.73;;;;;;;6.32;100.00;93148.22;2089809;28;20527;-58
2024/02/11 01:20:03;;;;;;;17.80;11.32;;;;;;;6.32;100.00;93150.00;2089767;28;20052;-59
2024/02/11 01:21:07;;;;;;;19.65;12.02;;;;;;;6.34;100.00;93148.94;2090110;28;20040;-58
2024/02/11 01:22:08;;;;;;;17.98;11.73;;;;;;;6.34;100.00;93150.69;2090036;28;20041;-59
2024/02/11 01:23:09;;;;;;;17.13;11.45;;;;;;;6.33;100.00;93149.84;2090489;28;20407;-59
2024/02/11 01:24:16;;;;;;;18.20;11.20;;;;;;;6.32;100.00;93150.00;2090049;28;20041;-58
2024/02/11 01:25:20;;;;;;;18.42;11.50;;;;;;;6.28;100.00;93146.84;2090270;28;20052;-58
2024/02/11 01:26:21;;;;;;;18.15;12.75;;;;;;;6.30;100.00;93159.59;2090083;28;20041;-58
2024/02/11 01:27:22;;;;;;;18.65;12.60;;;;;;;6.26;100.00;93156.44;2090083;28;20049;-59
2024/02/11 01:28:23;;;;;;;20.00;13.27;;;;;;;6.23;100.00;93159.25;2090210;28;20051;-58
2024/02/11 01:29:24;;;;;;;17.38;12.32;;;;;;;6.24;100.00;93163.44;2090020;28;20499;-58
2024/02/11 01:30:25;;;;;;;17.52;10.40;;;;;;;6.21;100.00;93160.28;2090280;28;20037;-58
2024/02/11 01:31:26;;;;;;;17.30;12.35;;;;;;;6.24;100.00;93170.38;2089883;28;20049;-58
2024/02/11 01:32:27;;;;;;;18.17;12.25;;;;;;;6.26;100.00;93165.94;2090188;28;20036;-58
2024/02/11 01:33:29;;;;;;;18.65;11.65;;;;;;;6.27;100.00;93165.78;2090220;28;20051;-59
2024/02/11 01:34:30;;;;;;;17.05;11.48;;;;;;;6.27;100.00;93170.13;2090029;28;20049;-58
2024/02/11 01:35:31;;;;;;;17.25;11.93;;;;;;;6.26;100.00;93166.75;2089707;28;20440;-58
2024/02/11 01:36:32;;;;;;;18.38;11.38;;;;;;;6.27;100.00;93164.97;2091389;28;20045;-58
2024/02/11 01:37:34;;;;;;;17.27;11.40;;;;;;;6.29;100.00;93168.25;2091984;28;20037;-58
2024/02/11 01:38:35;;;;;;;18.35;10.48;;;;;;;6.33;100.00;93165.31;2091885;28;20040;-58
2024/02/11 01:39:38;;;;;;;18.08;11.82;;;;;;;6.37;100.00;93160.78;2091797;28;20056;-59
2024/02/11 01:40:40;;;;;;;17.02;11.65;;;;;;;6.41;100.00;93162.16;2091853;28;20503;-58
2024/02/11 01:41:41;;;;;;;18.08;12.30;;;;;;;6.44;100.00;93166.25;2091469;28;20045;-59
2024/02/11 01:42:45;;;;;;;18.55;11.05;;;;;;;6.45;100.00;93166.16;2091734;28;20048;-58
2024/02/11 01:43:47;;;;;;;20.05;12.13;;;;;;;6.46;100.00;93154.09;2091789;28;20057;-59
2024/02/11 01:44:48;;;;;;;18.67;12.52;;;;;;;6.49;100.00;93161.59;2091725;28;20056;-58
2024/02/11 01:45:49;;;;;;;15.48;10.45;;;;;;;6.52;100.00;93158.78;2092075;28;20048;-59
2024/02/11 01:46:50;;;;;;;20.38;11.90;;;;;;;6.51;100.00;93151.97;2091723;28;20032;-58
2024/02/11 01:47:53;;;;;;;20.15;12.50;;;;;;;6.53;100.00;93156.09;2091275;28;20072;-59
2024/02/11 01:48:55;;;;;;;18.25;11.85;;;;;;;6.54;100.00;93159.47;2090783;28;20041;-63
2024/02/11 01:49:56;;;;;;;19.58;11.63;;;;;;;6.54;100.00;93160.28;2082705;28;20049;-58
2024/02/11 01:50:57;;;;;;;17.08;11.63;;;;;;;6.59;100.00;93165.09;2090910;28;20048;-58
2024/02/11 01:51:59;;;;;;;23.00;11.27;;;;;;;6.58;100.00;93163.47;2090689;28;20048;-58
2024/02/11 01:53:00;;;;;;;16.58;10.73;;;;;;;6.60;100.00;93161.56;2083140;28;20049;-59
2024/02/11 01:54:01;;;;;;;17.10;11.73;;;;;;;6.60;100.00;93166.72;2083147;28;20390;-58
2024/02/11 01:55:04;;;;;;;17.05;11.25;;;;;;;6.60;100.00;93161.56;2083053;28;20048;-58
2024/02/11 01:56:05;;;;;;;15.35;11.52;;;;;;;6.61;100.00;93171.78;2091079;28;20496;-58
2024/02/11 01:57:06;;;;;;;18.40;12.10;;;;;;;6.62;100.00;93170.03;2074873;28;20053;-58
2024/02/11 01:58:07;;;;;;;18.40;12.35;;;;;;;6.62;100.00;93170.03;2074585;28;20034;-59
2024/02/11 01:59:09;;;;;;;16.63;10.82;;;;;;;6.62;100.00;93170.03;2091260;28;20521;-58
2024/02/11 02:00:11;;;;;;;19.27;11.32;;;;;;;6.64;100.00;93168.16;2090976;28;20041;-58
2024/02/11 02:01:13;;;;;;;16.33;10.55;;;;;;;6.64;100.00;93175.88;2091313;28;20049;-58
2024/02/11 02:02:16;;;;;;;22.08;11.98;;;;;;;6.63;100.00;93174.25;2091287;28;20051;-59
2024/02/11 02:03:17;;;;;;;16.67;10.63;;;;;;;6.58;100.00;93176.38;2090826;28;20460;-58
2024/02/11 02:04:18;;;;;;;15.48;11.00;;;;;;;6.61;100.00;93181.28;2091034;28;20043;-58
2024/02/11 02:05:20;;;;;;;19.45;11.68;;;;;;;6.60;100.00;93175.31;2091593;28;20041;-58
2024/02/11 02:06:22;;;;;;;18.90;12.40;;;;;;;6.61;100.00;93179.53;2091585;28;20496;-58
2024/02/11 02:07:23;;;;;;;19.13;11.88;;;;;;;6.61;100.00;93179.53;2090894;28;20052;-58
2024/02/11 02:08:25;;;;;;;17.42;12.25;;;;;;;6.62;100.00;93182.91;2090725;28;20504;-58
2024/02/11 02:09:26;;;;;;;16.98;11.73;;;;;;;6.63;100.00;93182.00;2098769;28;20071;-58
2024/02/11 02:10:27;;;;;;;17.42;12.00;;;;;;;6.63;100.00;93176.84;2089946;28;20045;-58
2024/02/11 02:11:28;;;;;;;19.25;11.77;;;;;;;6.62;100.00;93176.00;2090721;28;20493;-58
2024/02/11 02:12:30;;;;;;;18.30;11.95;;;;;;;6.61;100.00;93178.72;2091131;28;20421;-58
2024/02/11 02:13:31;;;;;;;21.02;12.80;;;;;;;6.63;100.00;93187.97;2099133;28;20053;-58
2024/02/11 02:14:32;;;;;;;20.75;12.77;;;;;;;6.65;100.00;93179.28;2099466;28;20052;-60
2024/02/11 02:15:33;;;;;;;18.35;12.30;;;;;;;6.66;100.00;93181.75;2092139;28;20037;-58
2024/02/11 02:16:34;;;;;;;19.38;12.40;;;;;;;6.65;100.00;93181.88;2092031;28;20059;-58
2024/02/11 02:17:36;;;;;;;17.10;12.70;;;;;;;6.63;100.00;93175.06;2091878;28;20056;-58
2024/02/11 02:18:37;;;;;;;16.98;11.80;;;;;;;6.63;100.00;93182.81;2091679;28;20045;-58
2024/02/11 02:19:38;;;;;;;24.90;12.50;;;;;;;6.63;100.00;93176.84;2091385;28;20056;-58
2024/02/11 02:20:39;;;;;;;18.17;12.32;;;;;;;6.61;100.00;93178.72;2091546;28;20496;-58
2024/02/11 02:21:51;;;;;;;19.33;12.60;;;;;;;6.64;100.00;93186.19;2091451;28;20035;-59
2024/02/11 02:22:52;;;;;;;17.85;12.07;;;;;;;6.63;100.00;93187.97;2091456;28;20040;-58
2024/02/11 02:23:53;;;;;;;19.45;11.20;;;;;;;6.64;100.00;93183.63;2098745;28;20045;-59
2024/02/11 02:24:55;;;;;;;15.55;9.73;;;;;;;6.67;100.00;93185.97;2098814;28;20051;-58
2024/02/11 02:25:57;;;;;;;19.10;13.00;;;;;;;6.68;100.00;93185.00;2091444;28;20047;-59
2024/02/11 02:26:58;;;;;;;22.35;13.05;;;;;;;6.70;100.00;93193.47;2091345;28;20048;-59
2024/02/11 02:28:04;;;;;;;20.02;12.82;;;;;;;6.71;100.00;93195.13;2091503;28;20043;-59
2024/02/11 02:29:05;;;;;;;17.77;10.57;;;;;;;6.72;100.00;93183.84;2091316;28;20045;-59
2024/02/11 02:30:07;;;;;;;18.20;12.38;;;;;;;6.74;100.00;93191.50;2091381;28;20045;-59
2024/02/11 02:31:08;;;;;;;17.83;12.45;;;;;;;6.74;100.00;93178.59;2091090;28;20040;-59
2024/02/11 02:32:09;;;;;;;19.20;12.40;;;;;;;6.76;100.00;93195.59;2091192;28;20469;-59
2024/02/11 02:33:10;;;;;;;18.50;12.05;;;;;;;6.77;100.00;93186.09;2091544;28;20040;-58
2024/02/11 02:34:11;;;;;;;21.08;12.43;;;;;;;6.78;100.00;93187.72;2091343;28;20053;-58
2024/02/11 02:35:21;;;;;;;20.75;13.32;;;;;;;6.78;100.00;93188.53;2091577;28;20441;-59
2024/02/11 02:36:22;;;;;;;;;;;;;;;6.78;100.00;93180.78;2091776;28;20060;-59
2024/02/11 02:37:23;;;;;;;17.95;12.25;;;;;;;6.76;100.00;93182.69;2091257;28;19917;-59
2024/02/11 02:38:24;;;;;;;18.63;9.98;;;;;;;6.76;100.00;93182.69;2091361;28;20051;-59
2024/02/11 02:39:25;;;;;;;19.48;13.07;;;;;;;6.79;100.00;93179.03;2091791;28;20057;-58
2024/02/11 02:40:28;;;;;;;18.90;11.93;;;;;;;6.80;100.00;93176.34;2091176;28;20507;-58
2024/02/11 02:41:29;;;;;;;19.33;11.68;;;;;;;6.80;100.00;93185.84;2091033;28;20049;-59
2024/02/11 02:42:30;;;;;;;16.77;10.38;;;;;;;6.81;100.00;93174.59;2091178;28;20485;-59
2024/02/11 02:43:32;;;;;;;18.00;12.20;;;;;;;6.83;100.00;93185.59;2091202;28;20037;-59
2024/02/11 02:44:33;;;;;;;19.88;13.27;;;;;;;6.84;100.00;93192.41;2091088;28;20524;-59
2024/02/11 02:45:34;;;;;;;16.13;9.38;;;;;;;6.84;100.00;93192.41;2091256;28;20056;-59
2024/02/11 02:46:35;;;;;;;16.17;10.65;;;;;;;6.84;100.00;93182.06;2091143;28;20502;-59
2024/02/11 02:47:36;;;;;;;21.67;13.52;;;;;;;6.85;100.00;93192.28;2090852;28;20040;-59
2024/02/11 02:48:38;;;;;;;17.55;12.38;;;;;;;6.84;100.00;93188.09;2090765;28;20045;-59
2024/02/11 02:49:39;;;;;;;21.05;11.88;;;;;;;6.84;100.00;93195.81;2091181;28;20072;-59
2024/02/11 02:50:43;;;;;;;18.92;13.52;;;;;;;6.84;100.00;93198.41;2091336;28;20048;-59
2024/02/11 02:51:44;;;;;;;19.08;12.73;;;;;;;6.85;100.00;93192.28;2091154;28;20036;-59
2024/02/11 02:52:46;;;;;;;21.48;13.85;;;;;;;6.84;100.00;93193.25;2091278;28;20044;-58
2024/02/11 02:53:49;;;;;;;20.55;13.23;;;;;;;6.81;100.00;93190.88;2090866;28;20053;-62
2024/02/11 02:54:50;;;;;;;20.50;12.93;;;;;;;6.84;100.00;93195.81;2090529;28;20484;-59
2024/02/11 02:55:51;;;;;;;20.65;12.93;;;;;;;6.84;100.00;93198.41;2090603;28;20029;-59
2024/02/11 02:56:52;;;;;;;20.10;13.02;;;;;;;6.82;100.00;93195.09;2091227;28;20040;-58
2024/02/11 02:57:54;;;;;;;21.25;14.35;;;;;;;6.83;100.00;93199.31;2091241;28;20535;-67
2024/02/11 02:58:55;;;;;;;20.65;13.30;;;;;;;6.82;100.00;93202.84;2090844;28;20052;-59
2024/02/11 02:59:56;;;;;;;23.80;13.70;;;;;;;6.83;100.00;93201.09;2091088;28;20044;-58
2024/02/11 03:01:00;;;;;;;21.90;14.30;;;;;;;6.83;100.00;93204.47;2091212;28;20052;-59
2024/02/11 03:02:01;;;;;;;22.65;15.05;;;;;;;6.83;100.00;93199.31;2098133;28;20517;-58
2024/02/11 03:03:03;;;;;;;25.58;16.45;;;;;;;6.84;100.00;93205.28;2098663;28;20045;-59
2024/02/11 03:04:05;;;;;;;27.10;16.50;;;;;;;6.81;100.00;93201.19;2090913;28;20412;-59
2024/02/11 03:05:06;;;;;;;28.75;15.98;;;;;;;6.82;100.00;93208.00;2091132;28;20464;-59
2024/02/11 03:06:07;;;;;;;24.40;16.25;;;;;;;6.85;100.00;93207.78;2091067;28;20032;-59
2024/02/11 03:07:08;;;;;;;24.45;16.63;;;;;;;6.85;100.00;93212.13;2091128;28;20037;-59
2024/02/11 03:08:09;;;;;;;25.83;17.23;;;;;;;6.87;100.00;93217.13;2091299;28;20627;-66
2024/02/11 03:09:11;;;;;;;24.40;15.93;;;;;;;6.84;100.00;93219.03;2091058;28;20044;-59
2024/02/11 03:10:20;;;;;;;23.00;15.98;;;;;;;6.85;100.00;93219.84;2091204;28;20037;-59
2024/02/11 03:11:21;;;;;;;23.48;15.68;;;;;;;6.84;100.00;93216.47;2090015;28;20409;-59
2024/02/11 03:12:23;;;;;;;22.08;14.95;;;;;;;6.87;100.00;93211.97;2089992;28;20045;-59
2024/02/11 03:13:24;;;;;;;24.65;17.02;;;;;;;6.89;100.00;93221.25;2091104;28;20060;-59
2024/02/11 03:14:25;;;;;;;27.58;16.52;;;;;;;6.89;100.00;93217.84;2091155;28;20048;-59
2024/02/11 03:15:27;;;;;;;26.73;17.45;;;;;;;6.88;100.00;93222.19;2091048;28;20048;-59
2024/02/11 03:16:28;;;;;;;27.58;17.67;;;;;;;6.87;100.00;93223.16;2090888;28;20040;-59
2024/02/11 03:17:29;;;;;;;24.42;17.05;;;;;;;6.87;100.00;93217.97;2090581;28;20053;-59
2024/02/11 03:18:30;;;;;;;25.02;17.75;;;;;;;6.88;100.00;93216.22;2091201;28;20041;-59
2024/02/11 03:19:32;;;;;;;24.13;17.10;;;;;;;6.89;100.00;93223.00;2091102;28;20045;-59
2024/02/11 03:20:33;;;;;;;26.13;17.98;;;;;;;6.90;100.00;93224.66;2090949;28;20055;-59
2024/02/11 03:21:34;;;;;;;26.45;18.10;;;;;;;6.90;100.00;93219.50;2090883;28;20048;-59
2024/02/11 03:22:36;;;;;;;30.10;18.95;;;;;;;6.89;100.00;93223.00;2091374;28;20408;-60
2024/02/11 03:23:37;;;;;;;27.77;18.67;;;;;;;6.88;100.00;93227.34;2090925;28;20084;-59
2024/02/11 03:24:42;;;;;;;28.92;19.08;;;;;;;6.89;100.00;93235.91;2090920;28;20064;-61
2024/02/11 03:25:43;;;;;;;25.10;17.30;;;;;;;6.88;100.00;93222.19;2090525;28;20448;-60
2024/02/11 03:26:45;;;;;;;30.88;18.35;;;;;;;6.88;100.00;93218.78;2090281;28;20048;-61
2024/02/11 03:27:47;;;;;;;27.30;18.73;;;;;;;6.89;100.00;93233.31;2091033;28;20048;-60
2024/02/11 03:28:49;;;;;;;29.35;18.80;;;;;;;6.87;100.00;93233.47;2090842;28;20048;-60
2024/02/11 03:29:50;;;;;;;31.77;20.25;;;;;;;6.87;100.00;93225.72;2090844;28;20048;-61
2024/02/11 03:30:51;;;;;;;28.00;18.05;;;;;;;6.86;100.00;93231.81;2090848;28;20036;-61
2024/02/11 03:31:54;;;;;;;28.45;18.67;;;;;;;6.87;100.00;93237.78;2091622;28;20037;-61
2024/02/11 03:32:55;;;;;;;29.88;19.00;;;;;;;6.85;100.00;93233.56;2090875;28;20408;-61
2024/02/11 03:33:56;;;;;;;29.88;20.48;;;;;;;6.84;100.00;93234.50;2090864;28;20039;-60
2024/02/11 03:34:57;;;;;;;33.63;20.85;;;;;;;6.82;100.00;93236.38;2090859;28;20049;-62
2024/02/11 03:35:58;;;;;;;27.77;18.90;;;;;;;6.83;100.00;93245.75;2090833;28;20045;-62
2024/02/11 03:36:59;;;;;;;32.25;20.25;;;;;;;6.83;100.00;93248.34;2091114;28;20052;-62
2024/02/11 03:38:01;;;;;;;29.75;20.13;;;;;;;6.83;100.00;93245.75;2090835;28;20045;-62
2024/02/11 03:39:08;;;;;;;34.13;21.50;;;;;;;6.83;100.00;93240.59;2090787;28;20056;-63
2024/02/11 03:40:12;;;;;;;31.27;21.30;;;;;;;6.81;100.00;93245.03;2090870;28;20041;-62
2024/02/11 03:41:13;;;;;;;31.90;20.63;;;;;;;6.81;100.00;93246.81;2098454;28;20527;-62
2024/02/11 03:42:14;;;;;;;29.77;19.77;;;;;;;6.80;100.00;93246.00;2090131;28;20041;-65
2024/02/11 03:43:15;;;;;;;32.40;20.35;;;;;;;6.79;100.00;93246.94;2089927;28;20049;-62
2024/02/11 03:44:17;;;;;;;38.00;24.50;;;;;;;6.79;100.00;93256.41;2090888;28;20413;-62
2024/02/11 03:45:19;;;;;;;31.40;21.77;;;;;;;6.79;100.00;93246.94;2091083;28;20045;-64
2024/02/11 03:46:22;;;;;;;34.03;21.50;;;;;;;6.79;100.00;93253.84;2090816;28;20053;-62
2024/02/11 03:47:24;;;;;;;33.90;23.10;;;;;;;6.78;100.00;93260.75;2090807;28;20378;-62
2024/02/11 03:48:25;;;;;;;33.65;21.33;;;;;;;6.78;100.00;93255.59;2090409;28;20056;-62
2024/02/11 03:49:28;;;;;;;33.05;22.42;;;;;;;6.77;100.00;93248.81;2090627;28;20075;-62
2024/02/11 03:50:29;;;;;;;38.50;23.45;;;;;;;6.76;100.00;93251.50;2090827;28;20405;-62
2024/02/11 03:51:30;;;;;;;35.50;22.80;;;;;;;6.76;100.00;93259.22;2091050;28;20041;-62
2024/02/11 03:52:35;;;;;;;38.35;24.33;;;;;;;6.76;100.00;93259.22;2090836;28;20048;-62
2024/02/11 03:53:36;;;;;;;38.58;24.77;;;;;;;6.75;100.00;93257.59;2090656;28;20040;-62
2024/02/11 03:54:38;;;;;;;36.97;24.00;;;;;;;6.75;100.00;93261.00;2090613;28;20404;-62
2024/02/11 03:55:39;;;;;;;39.10;24.75;;;;;;;6.74;100.00;93266.28;2090108;28;20043;-62
2024/02/11 03:56:41;;;;;;;37.35;24.27;;;;;;;6.72;100.00;93256.06;2090706;28;20044;-61
2024/02/11 03:57:42;;;;;;;37.67;19.90;;;;;;;6.73;100.00;93257.69;2090645;28;20508;-61
2024/02/11 03:58:43;;;;;;;39.03;25.02;;;;;;;6.76;100.00;93265.22;2090386;28;20056;-61
2024/02/11 03:59:45;;;;;;;36.65;24.15;;;;;;;6.76;100.00;93272.13;2090760;28;20037;-62
2024/02/11 04:00:47;;;;;;;37.28;24.60;;;;;;;6.76;100.00;93265.22;2090314;28;20063;-61
2024/02/11 04:01:48;;;;;;;40.63;25.85;;;;;;;6.76;100.00;93262.66;2090541;28;20155;-61
2024/02/11 04:02:52;;;;;;;37.33;22.67;;;;;;;6.75;100.00;93263.56;2090278;28;20056;-62
2024/02/11 04:03:53;;;;;;;40.22;24.73;;;;;;;6.75;100.00;93265.34;2090641;28;20473;-61
2024/02/11 04:04:54;;;;;;;39.80;24.52;;;;;;;6.75;100.00;93266.16;2090943;28;20032;-61
2024/02/11 04:05:56;;;;;;;41.83;25.08;;;;;;;6.77;100.00;93264.28;2090994;28;20048;-61
2024/02/11 04:06:57;;;;;;;38.85;24.40;;;;;;;6.79;100.00;93272.72;2090690;28;20488;-61
2024/02/11 04:07:58;;;;;;;37.10;24.02;;;;;;;6.79;100.00;93270.16;2090227;28;20044;-61
2024/02/11 04:09:00;;;;;;;40.90;22.20;;;;;;;6.78;100.00;93265.91;2090606;28;20036;-62
2024/02/11 04:10:17;;;;;;;39.65;23.60;;;;;;;6.79;100.00;93272.72;2090489;28;20048;-61
2024/02/11 04:11:20;;;;;;;37.97;21.65;;;;;;;6.80;100.00;93271.78;2090623;28;20056;-61
2024/02/11 04:12:22;;;;;;;43.05;25.25;;;;;;;6.80;100.00;93263.22;2090467;28;20075;-61
2024/02/11 04:13:26;;;;;;;35.42;22.80;;;;;;;6.80;100.00;93265.81;2090539;28;20402;-61
2024/02/11 04:14:27;;;;;;;38.22;23.77;;;;;;;6.81;100.00;93276.00;2090560;28;20040;-61
2024/02/11 04:15:28;;;;;;;48.90;27.20;;;;;;;6.80;100.00;93271.78;2090497;28;20052;-60
2024/02/11 04:16:30;;;;;;;41.80;25.80;;;;;;;6.82;100.00;93275.06;2090549;28;20048;-64
2024/02/11 04:17:36;;;;;;;42.42;25.02;;;;;;;6.82;100.00;93275.06;2090459;28;20052;-61
2024/02/11 04:18:38;;;;;;;40.20;23.98;;;;;;;6.83;100.00;93276.72;2090508;28;20052;-60
2024/02/11 04:19:39;;;;;;;43.40;26.17;;;;;;;6.85;100.00;93289.50;2090447;28;20041;-61
2024/02/11 04:20:40;;;;;;;40.70;24.55;;;;;;;6.84;100.00;93280.94;2091075;28;20052;-61
2024/02/11 04:21:42;;;;;;;41.42;25.27;;;;;;;6.85;100.00;93284.34;2090622;28;20057;-60
2024/02/11 04:22:43;;;;;;;40.92;27.00;;;;;;;6.85;100.00;93282.56;2090562;28;20405;-61
2024/02/11 04:23:46;;;;;;;39.40;24.35;;;;;;;6.85;100.00;93280.00;2090493;28;20098;-61
2024/02/11 04:24:49;;;;;;;40.10;23.27;;;;;;;6.85;100.00;93281.75;2090534;28;20040;-61
2024/02/11 04:25:52;;;;;;;43.90;27.27;;;;;;;6.84;100.00;93280.94;2090533;28;20059;-61
2024/02/11 04:26:53;;;;;;;40.33;25.23;;;;;;;6.82;100.00;93285.41;2090464;28;20041;-61
2024/02/11 04:27:54;;;;;;;44.47;26.98;;;;;;;6.80;100.00;93284.69;2090386;28;20044;-61
2024/02/11 04:28:55;;;;;;;40.67;25.25;;;;;;;6.84;100.00;93293.00;2081482;28;20041;-62
2024/02/11 04:29:57;;;;;;;40.50;25.50;;;;;;;6.85;100.00;93284.34;2081586;28;20478;-63
2024/02/11 04:30:58;;;;;;;40.45;24.90;;;;;;;6.81;100.00;93293.22;2090476;28;20028;-62
2024/02/11 04:32:00;;;;;;;24.90;15.35;;;;;;;6.70;100.00;93280.34;2090269;28;20401;-63
2024/02/11 04:33:04;;;;;;;18.52;11.30;;;;;;;6.61;100.00;93297.31;2090449;28;20049;-64
2024/02/11 04:34:08;;;;;;;13.43;8.45;;;;;;;6.53;100.00;93297.88;2090402;28;20067;-64
2024/02/11 04:35:12;;;;;;;12.55;7.03;;;;;;;6.46;100.00;93299.28;2090471;28;20400;-64
2024/02/11 04:36:16;;;;;;;11.20;6.95;;;;;;;6.38;100.00;93301.59;2090206;28;20045;-64
2024/02/11 04:37:18;;;;;;;6.57;3.70;;;;;;;6.26;100.00;93290.44;2090458;28;20496;-63
2024/02/11 04:38:19;;;;;;;7.85;5.05;;;;;;;6.18;100.00;93297.91;2090347;28;20045;-64
2024/02/11 04:39:21;;;;;;;4.20;2.70;;;;;;;6.06;100.00;93303.94;2090946;28;20048;-63
2024/02/11 04:40:24;;;;;;;3.40;1.85;;;;;;;5.93;100.00;93298.81;2090341;28;20037;-63
2024/02/11 04:41:25;;;;;;;5.70;2.58;;;;;;;5.82;100.00;93309.06;2090438;28;20052;-64
2024/02/11 04:42:27;;;;;;;3.72;1.77;;;;;;;5.71;100.00;93299.53;2090255;28;20041;-63
2024/02/11 04:43:28;;;;;;;2.70;1.45;;;;;;;5.55;100.00;93310.09;2089824;28;20048;-63
2024/02/11 04:44:31;;;;;;;2.28;1.20;;;;;;;5.42;100.00;93311.88;2089842;28;20048;-63
2024/02/11 04:45:32;;;;;;;2.03;1.08;;;;;;;5.25;100.00;93316.47;2090266;28;20045;-63